Latest Weather Observations for Sellicks Hill

IDS60901

Issued at 4:21 pm CST Friday 19 April 2019 (issued every 10 minutes, with the page automatically refreshed every 10 minutes)

About weather observations | Map of Adelaide area stations | Latest observations for Adelaide area | Other Formats
Station Details ID: 023886 Name: MOUNT TERRIBLE RADAR Lat: -35.33 Lon: 138.50 Height: 385.7 m
Data from the previous 72 hours. | See also: Recent months at Sellicks Hill
Date/Time
CST
Temp
°C
App
Temp
°C
Dew
Point
°C
Rel
Hum
%
Delta-T
°C
Wind Press
QNH
hPa
Press
MSL
hPa
Rain since
9am
mm
Dir  Spd
km/h
Gust
km/h
Spd
kts
Gust
kts
19/04:00pm - - - - - NNW 9 17 5 9 - - -
19/03:30pm - - - - - NNW 11 19 6 10 - - -
19/03:00pm - - - - - NNW 13 24 7 13 - - -
19/02:30pm - - - - - NNW 15 24 8 13 - - -
19/02:00pm - - - - - NNW 11 19 6 10 - - -
19/01:30pm - - - - - NNW 11 20 6 11 - - -
19/01:00pm - - - - - NNW 13 28 7 15 - - -
19/12:30pm - - - - - NNW 13 26 7 14 - - -
19/12:00pm - - - - - NNW 11 20 6 11 - - -
19/11:30am - - - - - NNW 11 22 6 12 - - -
19/11:00am - - - - - NNW 9 22 5 12 - - -
19/10:30am - - - - - NNW 9 19 5 10 - - -
19/10:00am - - - - - N 11 20 6 11 - - -
19/09:30am - - - - - N 9 19 5 10 - - -
19/09:00am - - - - - N 9 17 5 9 - - -
19/08:30am - - - - - N 15 24 8 13 - - -
19/08:00am - - - - - N 11 17 6 9 - - -
19/07:30am - - - - - N 13 19 7 10 - - -
19/07:00am - - - - - NNE 11 19 6 10 - - -
19/06:30am - - - - - NE 17 24 9 13 - - -
19/06:00am - - - - - NE 20 30 11 16 - - -
19/05:30am - - - - - ENE 20 30 11 16 - - -
19/05:00am - - - - - ENE 24 39 13 21 - - -
19/04:30am - - - - - ENE 28 35 15 19 - - -
19/04:00am - - - - - E 28 39 15 21 - - -
19/03:30am - - - - - ENE 28 39 15 21 - - -
19/03:00am - - - - - ENE 28 39 15 21 - - -
19/02:30am - - - - - ENE 32 43 17 23 - - -
19/02:00am - - - - - E 30 46 16 25 - - -
19/01:30am - - - - - E 32 46 17 25 - - -
19/01:00am - - - - - E 33 44 18 24 - - -
19/12:30am - - - - - E 33 44 18 24 - - -
19/12:00am - - - - - E 32 44 17 24 - - -
 
Date/Time
CST
Temp
°C
App
Temp
°C
Dew
Point
°C
Rel
Hum
%
Delta-T
°C
Wind Press
QNH
hPa
Press
MSL
hPa
Rain since
9am
mm
Dir  Spd
km/h
Gust
km/h
Spd
kts
Gust
kts
18/11:30pm - - - - - E 30 48 16 26 - - -
18/11:29pm - - - - - E 30 48 16 26 - - -
18/11:00pm - - - - - ESE 28 39 15 21 - - -
18/10:30pm - - - - - ESE 26 39 14 21 - - -
18/10:00pm - - - - - ESE 26 37 14 20 - - -
18/09:30pm - - - - - SE 30 39 16 21 - - -
18/09:00pm - - - - - SE 32 37 17 20 - - -
18/08:30pm - - - - - SE 33 41 18 22 - - -
18/08:00pm - - - - - SE 32 41 17 22 - - -
18/07:30pm - - - - - SE 32 43 17 23 - - -
18/07:00pm - - - - - SE 30 37 16 20 - - -
18/06:30pm - - - - - SE 28 33 15 18 - - -
18/06:00pm - - - - - SE 28 33 15 18 - - -
18/05:30pm - - - - - SE 32 37 17 20 - - -
18/05:00pm - - - - - SE 32 39 17 21 - - -
18/04:30pm - - - - - SE 30 39 16 21 - - -
18/04:00pm - - - - - ESE 22 32 12 17 - - -
18/03:30pm - - - - - ESE 24 37 13 20 - - -
18/03:00pm - - - - - SE 26 39 14 21 - - -
18/02:30pm - - - - - ESE 24 35 13 19 - - -
18/02:00pm - - - - - ESE 22 32 12 17 - - -
18/01:30pm - - - - - ESE 24 37 13 20 - - -
18/01:00pm - - - - - ESE 22 39 12 21 - - -
18/12:30pm - - - - - ESE 20 32 11 17 - - -
18/12:00pm - - - - - ESE 22 33 12 18 - - -
18/11:30am - - - - - ESE 26 41 14 22 - - -
18/11:00am - - - - - ESE 22 35 12 19 - - -
18/10:30am - - - - - E 22 35 12 19 - - -
18/10:00am - - - - - ESE 24 43 13 23 - - -
18/09:30am - - - - - E 20 35 11 19 - - -
18/09:00am - - - - - ESE 19 28 10 15 - - -
18/08:30am - - - - - ESE 17 30 9 16 - - -
18/08:00am - - - - - ESE 17 28 9 15 - - -
18/07:30am - - - - - ESE 17 28 9 15 - - -
18/07:00am - - - - - ESE 19 28 10 15 - - -
18/06:30am - - - - - SE 19 30 10 16 - - -
18/06:00am - - - - - SE 17 20 9 11 - - -
18/05:30am - - - - - SE 19 24 10 13 - - -
18/05:00am - - - - - SE 19 24 10 13 - - -
18/04:30am - - - - - SE 17 22 9 12 - - -
18/04:00am - - - - - SSE 19 22 10 12 - - -
18/03:30am - - - - - SSE 22 26 12 14 - - -
18/03:00am - - - - - SSE 20 24 11 13 - - -
18/02:30am - - - - - SSE 22 28 12 15 - - -
18/02:00am - - - - - SSE 22 26 12 14 - - -
18/01:30am - - - - - SSE 19 22 10 12 - - -
18/01:00am - - - - - SSE 20 28 11 15 - - -
18/12:30am - - - - - S 22 30 12 16 - - -
18/12:00am - - - - - S 20 24 11 13 - - -
 
Date/Time
CST
Temp
°C
App
Temp
°C
Dew
Point
°C
Rel
Hum
%
Delta-T
°C
Wind Press
QNH
hPa
Press
MSL
hPa
Rain since
9am
mm
Dir  Spd
km/h
Gust
km/h
Spd
kts
Gust
kts
17/11:30pm - - - - - S 17 24 9 13 - - -
17/11:00pm - - - - - S 19 26 10 14 - - -
17/10:30pm - - - - - S 20 24 11 13 - - -
17/10:00pm - - - - - S 26 32 14 17 - - -
17/09:30pm - - - - - S 26 33 14 18 - - -
17/09:00pm - - - - - S 22 32 12 17 - - -
17/08:30pm - - - - - S 20 32 11 17 - - -
17/08:00pm - - - - - S 20 35 11 19 - - -
17/07:30pm - - - - - S 19 28 10 15 - - -
17/07:00pm - - - - - S 20 30 11 16 - - -
17/06:30pm - - - - - S 9 20 5 11 - - -
17/06:00pm - - - - - SSW 6 9 3 5 - - -
17/05:30pm - - - - - WSW 6 13 3 7 - - -
17/05:00pm - - - - - W 6 11 3 6 - - -
17/04:30pm - - - - - W 7 13 4 7 - - -
17/04:00pm - - - - - WSW 7 15 4 8 - - -
17/03:30pm - - - - - W 9 15 5 8 - - -
17/03:00pm - - - - - W 7 13 4 7 - - -
17/02:30pm - - - - - WNW 9 17 5 9 - - -
17/02:00pm - - - - - WNW 9 20 5 11 - - -
17/01:30pm - - - - - WNW 9 15 5 8 - - -
17/01:00pm - - - - - WNW 9 19 5 10 - - -
17/12:30pm - - - - - WNW 9 19 5 10 - - -
17/12:00pm - - - - - W 7 24 4 13 - - -
17/11:30am - - - - - WNW 9 20 5 11 - - -
17/11:00am - - - - - NW 7 15 4 8 - - -
17/10:30am - - - - - NNW 6 13 3 7 - - -
17/10:00am - - - - - NNW 6 11 3 6 - - -
17/09:30am - - - - - NNW 7 11 4 6 - - -
17/09:00am - - - - - N 6 7 3 4 - - -
17/08:30am - - - - - NNW 11 17 6 9 - - -
17/08:00am - - - - - NNW 17 26 9 14 - - -
17/07:30am - - - - - NNW 15 26 8 14 - - -
17/07:00am - - - - - NNW 13 22 7 12 - - -
17/06:30am - - - - - NNW 11 24 6 13 - - -
17/06:00am - - - - - NNW 17 28 9 15 - - -
17/05:30am - - - - - NNW 19 32 10 17 - - -
17/05:00am - - - - - NNW 20 37 11 20 - - -
17/04:30am - - - - - NNW 20 39 11 21 - - -
17/04:10am - - - - - NNW 28 46 15 25 - - -
17/04:00am - - - - - NNW 24 41 13 22 - - -
17/03:30am - - - - - NNW 24 43 13 23 - - -
17/03:00am - - - - - NNW 24 39 13 21 - - -
17/02:30am - - - - - NNW 22 43 12 23 - - -
17/02:00am - - - - - NNW 22 44 12 24 - - -
17/01:30am - - - - - N 22 43 12 23 - - -
17/01:00am - - - - - N 22 37 12 20 - - -
17/12:30am - - - - - NNW 19 37 10 20 - - -
17/12:00am - - - - - NNW 20 35 11 19 - - -
 
Date/Time
CST
Temp
°C
App
Temp
°C
Dew
Point
°C
Rel
Hum
%
Delta-T
°C
Wind Press
QNH
hPa
Press
MSL
hPa
Rain since
9am
mm
Dir  Spd
km/h
Gust
km/h
Spd
kts
Gust
kts
16/11:30pm - - - - - N 22 35 12 19 - - -
16/11:00pm - - - - - N 20 37 11 20 - - -
16/10:30pm - - - - - NNW 20 32 11 17 - - -
16/10:00pm - - - - - N 22 35 12 19 - - -
16/09:30pm - - - - - NNW 20 32 11 17 - - -
16/09:00pm - - - - - NNW 19 33 10 18 - - -
16/08:30pm - - - - - N 17 28 9 15 - - -
16/08:00pm - - - - - N 17 28 9 15 - - -
16/07:30pm - - - - - NNW 15 26 8 14 - - -
16/07:00pm - - - - - NNW 15 28 8 15 - - -
16/06:30pm - - - - - NNW 15 24 8 13 - - -
16/06:00pm - - - - - NNW 15 26 8 14 - - -
16/05:30pm - - - - - NNW 15 26 8 14 - - -
16/05:00pm - - - - - NNW 17 26 9 14 - - -
16/04:30pm - - - - - NNW 19 32 10 17 - - -

Latest Capital City Observations: Canberra | Sydney | Melbourne | Brisbane | Adelaide | Perth | Hobart | Darwin

Other formats

Comma delimited format used in spreadsheet applications
http://www.bom.gov.au/fwo/IDS60901/IDS60901.95679.axf

JavaScript Object Notation format (JSON) in row-major order
http://www.bom.gov.au/fwo/IDS60901/IDS60901.95679.json

Data quality

Most of these data are generated automatically and are frequently updated. Quality checks on data are not normally performed. It is possible for incorrect values to appear. Refer to information at About Latest Weather Observations and please check the disclaimer before using these data.